Emerald Coast — WDC9127 — position and weather

sailwx.info

Track history (hours):
 
Tides and Currents Weather Stations Pressure Air Temp Water Temp Dewpoint Dewpoint Depression Visibility Wind Speed Wind Dir Waves Ship Positions

Emerald Coast

Owner: Dann Marine Towing, LC, Chesapeake City, MD. More information available from US FCC via Universal Licensing System and Coast Guard Vessel Documentation Center.

Last reported at 2015-May-05 14:33 UTC. Time now 2015-May-06 07:26 UTC.
Position N 40°57' W 073°54'.

Length 28 m; draft 3 m.

Type: Towing. MMSI: 367097920.

Date/timePositionNaut miles runAvg speedWind from/ knotsBaromVisibWave heightAir tempDewpointWater temp
2015-May-05 14:33N 40°57' W 073°54'7 7.3
2015-May-05 13:33N 40°50' W 073°57'7 6.8
2015-May-05 12:33N 40°44' W 074°01'6 5.5
2015-May-05 11:33N 40°39' W 074°05'5 4.6
2015-May-05 10:33N 40°39' W 074°11'4 3.3
2015-May-05 09:23N 40°35' W 074°13'0 0.0
2015-May-05 07:32N 40°35' W 074°13'2 1.7
2015-May-05 06:33N 40°37' W 074°12'4 1.4
2015-May-05 03:32N 40°38' W 074°07'0 0.0
2015-May-05 01:28N 40°39' W 074°07'0 0.0
2015-May-05 00:33N 40°38' W 074°07'0 0.0
2015-May-04 23:32N 40°38' W 074°07'1 0.6
2015-May-04 22:33N 40°39' W 074°08'2 2.4
2015-May-04 21:33N 40°39' W 074°11'0 0.0
2015-May-04 20:33N 40°39' W 074°11'0 0.0
2015-May-04 19:33N 40°39' W 074°11'0 0.0
2015-May-04 18:33N 40°39' W 074°11'0 0.0
2015-May-04 17:33N 40°39' W 074°11'0 0.0
2015-May-04 16:33N 40°39' W 074°11'0 0.0
2015-May-04 15:33N 40°39' W 074°11'3 3.2
2015-May-04 14:33N 40°39' W 074°07'0 0.3
2015-May-04 13:33N 40°38' W 074°07'0 0.0
2015-May-04 12:32N 40°38' W 074°07'0 0.0
2015-May-04 11:30N 40°38' W 074°07'0 0.0
2015-May-04 10:30N 40°38' W 074°07'0 0.0
2015-May-04 09:17N 40°38' W 074°07'0 0.0
2015-May-04 08:33N 40°38' W 074°07'0 0.0
2015-May-04 07:33N 40°38' W 074°07'0 0.0
2015-May-04 06:30N 40°38' W 074°07'4 4.1
2015-May-04 05:33N 40°39' W 074°02'1 0.7
2015-May-04 04:33N 40°39' W 074°03'3 2.7
2015-May-04 03:23N 40°38' W 074°07'0 0.0
2015-May-04 02:33N 40°38' W 074°07'0 0.0
2015-May-04 01:33N 40°38' W 074°07'0 0.0
2015-May-03 23:31N 40°38' W 074°07'0 0.0
2015-May-03 22:33N 40°38' W 074°07'0 0.2
2015-May-03 21:33N 40°39' W 074°07'3 2.5
2015-May-03 20:33N 40°41' W 074°09'0 0.0
2015-May-03 19:33N 40°41' W 074°09'0 0.0
2015-May-03 18:33N 40°41' W 074°09'2 1.7
2015-May-03 17:33N 40°39' W 074°09'4 4.0
2015-May-03 16:33N 40°38' W 074°04'0 0.0
2015-May-03 15:33N 40°38' W 074°04'0 0.1
2015-May-03 14:32N 40°38' W 074°04'0 0.2
2015-May-03 13:33N 40°38' W 074°04'0 0.0
2015-May-03 12:33N 40°39' W 074°04'0 0.0
2015-May-03 11:33N 40°38' W 074°04'1 1.4
2015-May-03 10:33N 40°39' W 074°05'3 2.6
2015-May-03 09:33N 40°40' W 074°08'0 0.0
2015-May-03 08:33N 40°40' W 074°08'0 0.0
2015-May-03 07:33N 40°40' W 074°08'0 0.0
2015-May-03 06:33N 40°40' W 074°08'0 0.0
2015-May-03 05:33N 40°40' W 074°08'0 0.0
2015-May-03 04:33N 40°40' W 074°08'0 0.0
2015-May-03 03:33N 40°40' W 074°08'0 0.0
2015-May-03 02:33N 40°40' W 074°08'0 0.0
2015-May-03 01:33N 40°40' W 074°08'0 0.0
2015-May-03 00:32N 40°40' W 074°08'0 0.0
2015-May-02 23:33N 40°40' W 074°08'0 0.0
2015-May-02 22:33N 40°40' W 074°08'1 1.0
2015-May-02 21:33N 40°41' W 074°09'0 0.3
2015-May-02 20:33N 40°41' W 074°10'0 0.0
2015-May-02 19:33N 40°41' W 074°10'0 0.0
2015-May-02 18:33N 40°41' W 074°10'0 0.0
2015-May-02 17:33N 40°41' W 074°10'1 1.3
2015-May-02 16:33N 40°40' W 074°08'2 1.7
2015-May-02 15:33N 40°39' W 074°08'2 2.4
2015-May-02 14:33N 40°39' W 074°05'1 0.8
2015-May-02 13:33N 40°40' W 074°04'0 0.0
2015-May-02 12:33N 40°40' W 074°04'0 0.0
2015-May-02 11:33N 40°40' W 074°04'1 1.0
2015-May-02 10:33N 40°39' W 074°03'1 1.5
2015-May-02 09:33N 40°40' W 074°01'1 1.0
2015-May-02 08:33N 40°40' W 074°00'0 0.0
2015-May-02 07:33N 40°40' W 074°00'0 0.1
2015-May-02 06:33N 40°40' W 074°00'0 0.0
2015-May-02 05:32N 40°40' W 074°00'0 0.0
2015-May-02 04:33N 40°40' W 074°00'0 0.0
2015-May-02 03:33N 40°40' W 074°00'4 4.2
2015-May-02 02:33N 40°39' W 074°05'1 1.4
2015-May-02 01:33N 40°40' W 074°04'0 0.0
2015-May-02 00:33N 40°40' W 074°04'0 0.0
2015-May-01 23:33N 40°40' W 074°04'0 0.0
2015-May-01 22:33N 40°40' W 074°04'3 2.9
2015-May-01 21:33N 40°37' W 074°04'4 3.7
2015-May-01 20:33N 40°40' W 074°00'0 0.3
2015-May-01 19:33N 40°40' W 074°00'0 0.0
2015-May-01 18:33N 40°40' W 074°00'0 0.0
2015-May-01 17:33N 40°40' W 074°00'0 0.0
2015-May-01 16:33N 40°40' W 074°00'1 1.2
2015-May-01 15:33N 40°39' W 074°01'2 1.8
2015-May-01 14:32N 40°39' W 074°04'4 3.8
2015-May-01 13:33N 40°40' W 074°08'1 1.4
2015-May-01 12:33N 40°41' W 074°09'0 0.0
2015-May-01 11:33N 40°41' W 074°09'0 0.0
2015-May-01 10:33N 40°41' W 074°09'0 0.0
2015-May-01 09:33N 40°41' W 074°09'0 0.0
2015-May-01 08:28N 40°41' W 074°09'0 0.0
2015-May-01 07:33N 40°41' W 074°09'0 0.0
2015-May-01 06:33N 40°41' W 074°09'0 0.0
2015-May-01 05:33N 40°41' W 074°09'0 0.0
2015-May-01 04:33N 40°41' W 074°09'0 0.0
2015-May-01 03:32N 40°41' W 074°09'0 0.0
2015-May-01 02:33N 40°41' W 074°09'0 0.0
2015-May-01 01:33N 40°41' W 074°09'0 0.0
2015-May-01 00:33N 40°41' W 074°09'3 2.8
2015-Apr-30 23:33N 40°39' W 074°08'1 0.7
2015-Apr-30 22:33N 40°38' W 074°07'0 0.0
2015-Apr-30 21:32N 40°38' W 074°07'0 0.0
2015-Apr-30 20:33N 40°38' W 074°07'0 0.0
2015-Apr-30 19:33N 40°38' W 074°07'0 0.0
2015-Apr-30 18:33N 40°38' W 074°07'2 1.8
2015-Apr-30 17:33N 40°39' W 074°05'2 1.3
2015-Apr-30 16:09N 40°38' W 074°07'0 0.0
2015-Apr-30 15:33N 40°38' W 074°07'0 0.0
2015-Apr-30 13:28N 40°38' W 074°07'0 0.0
2015-Apr-30 12:10N 40°39' W 074°07'0 0.0
2015-Apr-30 11:16N 40°39' W 074°07'3 2.0
2015-Apr-30 09:33N 40°40' W 074°03'4 4.5
2015-Apr-30 08:33N 40°44' W 074°01'8 7.5
2015-Apr-30 07:33N 40°51' W 073°57'8 0.3
2015-Apr-29 01:29N 40°58' W 073°54'5 6.0
2015-Apr-29 00:33N 40°53' W 073°56'7 6.9
2015-Apr-28 23:33N 40°47' W 073°60'6 6.2
2015-Apr-28 22:33N 40°41' W 074°02'6 5.6
2015-Apr-28 21:32N 40°39' W 074°09'5 4.5
2015-Apr-28 20:26N 40°34' W 074°13'2 2.5
2015-Apr-28 19:33N 40°33' W 074°15'0 0.0
2015-Apr-28 18:29N 40°33' W 074°15'0 0.0
2015-Apr-28 16:23N 40°33' W 074°15'2 0.2
2015-Apr-28 06:33N 40°34' W 074°13'7 6.9
2015-Apr-28 05:33N 40°39' W 074°07'2 1.9
2015-Apr-28 04:31N 40°39' W 074°09'3 2.7
2015-Apr-28 03:33N 40°41' W 074°09'0 0.0
2015-Apr-28 02:34N 40°41' W 074°09'0 0.0
2015-Apr-28 01:33N 40°41' W 074°09'0 0.0
2015-Apr-28 00:33N 40°41' W 074°09'0 0.0
2015-Apr-27 23:33N 40°41' W 074°09'0 0.0
2015-Apr-27 22:33N 40°41' W 074°09'0 0.0
2015-Apr-27 21:33N 40°41' W 074°09'1 1.4
2015-Apr-27 20:33N 40°40' W 074°09'6 6.1
2015-Apr-27 19:31N 40°35' W 074°13'2 2.0
2015-Apr-27 18:25N 40°33' W 074°15'5 5.5
2015-Apr-27 17:32N 40°38' W 074°12'6 6.5
2015-Apr-27 16:33N 40°40' W 074°04'1 1.2
2015-Apr-27 15:33N 40°40' W 074°03'4 3.7
2015-Apr-27 14:33N 40°39' W 074°07'0 0.0
2015-Apr-27 13:32N 40°39' W 074°07'0 0.0
2015-Apr-27 12:30N 40°39' W 074°07'3 2.7
2015-Apr-27 11:33N 40°40' W 074°05'1 1.5
2015-Apr-27 10:33N 40°39' W 074°03'2 2.1
2015-Apr-27 09:33N 40°40' W 074°00'0 0.0
2015-Apr-27 08:33N 40°40' W 074°00'0 0.0
2015-Apr-27 07:34N 40°40' W 074°00'0 0.0
2015-Apr-27 06:34N 40°40' W 074°00'0 0.0
2015-Apr-27 05:33N 40°40' W 074°00'0 0.0
2015-Apr-27 04:33N 40°40' W 074°00'2 1.7
2015-Apr-27 03:33N 40°40' W 074°03'5 5.0
2015-Apr-27 02:33N 40°38' W 074°09'2 1.9
2015-Apr-27 01:33N 40°39' W 074°11'0 0.0
2015-Apr-27 00:33N 40°39' W 074°11'0 0.0
2015-Apr-26 23:33N 40°39' W 074°11'0 0.0
2015-Apr-26 22:33N 40°39' W 074°11'4 4.0
2015-Apr-26 21:33N 40°39' W 074°06'2 1.6
2015-Apr-26 20:33N 40°39' W 074°04'2 2.4
2015-Apr-26 19:34N 40°40' W 074°01'4 3.9
2015-Apr-26 18:33N 40°39' W 074°06'1 0.9
2015-Apr-26 17:30N 40°39' W 074°07'0 0.0
2015-Apr-26 16:33N 40°39' W 074°07'0 0.0
2015-Apr-26 15:31N 40°39' W 074°07'0 0.0
2015-Apr-26 14:33N 40°39' W 074°07'0 0.0
2015-Apr-26 13:24N 40°39' W 074°07'0 0.0
2015-Apr-26 12:31N 40°39' W 074°07'3 2.8
2015-Apr-26 11:33N 40°40' W 074°04'1 1.2
2015-Apr-26 10:33N 40°39' W 074°05'4 3.9
2015-Apr-26 09:34N 40°40' W 074°00'0 0.1
2015-Apr-26 08:33N 40°40' W 074°01'4 4.0
2015-Apr-26 07:33N 40°39' W 074°06'2 2.1
2015-Apr-26 06:33N 40°38' W 074°03'0 0.1
2015-Apr-26 05:34N 40°38' W 074°03'0 0.1
2015-Apr-26 04:33N 40°38' W 074°03'0 0.2
2015-Apr-26 03:33N 40°38' W 074°03'2 1.6
2015-Apr-26 02:33N 40°39' W 074°04'2 2.4
2015-Apr-26 01:33N 40°38' W 074°07'0 0.0
2015-Apr-26 00:33N 40°38' W 074°07'0 0.0
2015-Apr-25 23:32N 40°38' W 074°07'0 0.3
2015-Apr-25 22:33N 40°39' W 074°07'0 0.3
2015-Apr-25 21:27N 40°38' W 074°07'3 1.4
2015-Apr-25 19:33N 40°39' W 074°04'3 3.0
2015-Apr-25 18:33N 40°40' W 074°00'8 8.3
2015-Apr-25 17:33N 40°39' W 074°11'  
Track history (hours):
 
Tides and Currents Weather Stations Pressure Air Temp Water Temp Dewpoint Dewpoint Depression Visibility Wind Speed Wind Dir Waves Ship Positions

Emerald Coast

Owner: Dann Marine Towing, LC, Chesapeake City, MD. More information available from US FCC via Universal Licensing System and Coast Guard Vessel Documentation Center.

Last reported at 2015-May-05 14:33 UTC. Time now 2015-May-06 07:26 UTC.
Position N 40°57' W 073°54'.

Length 28 m; draft 3 m.

Type: Towing. MMSI: 367097920.

Date/timePositionNaut miles runAvg speedWind from/ knotsBaromVisibWave heightAir tempDewpointWater temp
2015-May-05 14:33N 40°57' W 073°54'7 7.3
2015-May-05 13:33N 40°50' W 073°57'7 6.8
2015-May-05 12:33N 40°44' W 074°01'6 5.5
2015-May-05 11:33N 40°39' W 074°05'5 4.6
2015-May-05 10:33N 40°39' W 074°11'4 3.3
2015-May-05 09:23N 40°35' W 074°13'0 0.0
2015-May-05 07:32N 40°35' W 074°13'2 1.7
2015-May-05 06:33N 40°37' W 074°12'4 1.4
2015-May-05 03:32N 40°38' W 074°07'0 0.0
2015-May-05 01:28N 40°39' W 074°07'0 0.0
2015-May-05 00:33N 40°38' W 074°07'0 0.0
2015-May-04 23:32N 40°38' W 074°07'1 0.6
2015-May-04 22:33N 40°39' W 074°08'2 2.4
2015-May-04 21:33N 40°39' W 074°11'0 0.0
2015-May-04 20:33N 40°39' W 074°11'0 0.0
2015-May-04 19:33N 40°39' W 074°11'0 0.0
2015-May-04 18:33N 40°39' W 074°11'0 0.0
2015-May-04 17:33N 40°39' W 074°11'0 0.0
2015-May-04 16:33N 40°39' W 074°11'0 0.0
2015-May-04 15:33N 40°39' W 074°11'3 3.2
2015-May-04 14:33N 40°39' W 074°07'0 0.3
2015-May-04 13:33N 40°38' W 074°07'0 0.0
2015-May-04 12:32N 40°38' W 074°07'0 0.0
2015-May-04 11:30N 40°38' W 074°07'0 0.0
2015-May-04 10:30N 40°38' W 074°07'0 0.0
2015-May-04 09:17N 40°38' W 074°07'0 0.0
2015-May-04 08:33N 40°38' W 074°07'0 0.0
2015-May-04 07:33N 40°38' W 074°07'0 0.0
2015-May-04 06:30N 40°38' W 074°07'4 4.1
2015-May-04 05:33N 40°39' W 074°02'1 0.7
2015-May-04 04:33N 40°39' W 074°03'3 2.7
2015-May-04 03:23N 40°38' W 074°07'0 0.0
2015-May-04 02:33N 40°38' W 074°07'0 0.0
2015-May-04 01:33N 40°38' W 074°07'0 0.0
2015-May-03 23:31N 40°38' W 074°07'0 0.0
2015-May-03 22:33N 40°38' W 074°07'0 0.2
2015-May-03 21:33N 40°39' W 074°07'3 2.5
2015-May-03 20:33N 40°41' W 074°09'0 0.0
2015-May-03 19:33N 40°41' W 074°09'0 0.0
2015-May-03 18:33N 40°41' W 074°09'2 1.7
2015-May-03 17:33N 40°39' W 074°09'4 4.0
2015-May-03 16:33N 40°38' W 074°04'0 0.0
2015-May-03 15:33N 40°38' W 074°04'0 0.1
2015-May-03 14:32N 40°38' W 074°04'0 0.2
2015-May-03 13:33N 40°38' W 074°04'0 0.0
2015-May-03 12:33N 40°39' W 074°04'0 0.0
2015-May-03 11:33N 40°38' W 074°04'1 1.4
2015-May-03 10:33N 40°39' W 074°05'3 2.6
2015-May-03 09:33N 40°40' W 074°08'0 0.0
2015-May-03 08:33N 40°40' W 074°08'0 0.0
2015-May-03 07:33N 40°40' W 074°08'0 0.0
2015-May-03 06:33N 40°40' W 074°08'0 0.0
2015-May-03 05:33N 40°40' W 074°08'0 0.0
2015-May-03 04:33N 40°40' W 074°08'0 0.0
2015-May-03 03:33N 40°40' W 074°08'0 0.0
2015-May-03 02:33N 40°40' W 074°08'0 0.0
2015-May-03 01:33N 40°40' W 074°08'0 0.0
2015-May-03 00:32N 40°40' W 074°08'0 0.0
2015-May-02 23:33N 40°40' W 074°08'0 0.0
2015-May-02 22:33N 40°40' W 074°08'1 1.0
2015-May-02 21:33N 40°41' W 074°09'0 0.3
2015-May-02 20:33N 40°41' W 074°10'0 0.0
2015-May-02 19:33N 40°41' W 074°10'0 0.0
2015-May-02 18:33N 40°41' W 074°10'0 0.0
2015-May-02 17:33N 40°41' W 074°10'1 1.3
2015-May-02 16:33N 40°40' W 074°08'2 1.7
2015-May-02 15:33N 40°39' W 074°08'2 2.4
2015-May-02 14:33N 40°39' W 074°05'1 0.8
2015-May-02 13:33N 40°40' W 074°04'0 0.0
2015-May-02 12:33N 40°40' W 074°04'0 0.0
2015-May-02 11:33N 40°40' W 074°04'1 1.0
2015-May-02 10:33N 40°39' W 074°03'1 1.5
2015-May-02 09:33N 40°40' W 074°01'1 1.0
2015-May-02 08:33N 40°40' W 074°00'0 0.0
2015-May-02 07:33N 40°40' W 074°00'0 0.1
2015-May-02 06:33N 40°40' W 074°00'0 0.0
2015-May-02 05:32N 40°40' W 074°00'0 0.0
2015-May-02 04:33N 40°40' W 074°00'0 0.0
2015-May-02 03:33N 40°40' W 074°00'4 4.2
2015-May-02 02:33N 40°39' W 074°05'1 1.4
2015-May-02 01:33N 40°40' W 074°04'0 0.0
2015-May-02 00:33N 40°40' W 074°04'0 0.0
2015-May-01 23:33N 40°40' W 074°04'0 0.0
2015-May-01 22:33N 40°40' W 074°04'3 2.9
2015-May-01 21:33N 40°37' W 074°04'4 3.7
2015-May-01 20:33N 40°40' W 074°00'0 0.3
2015-May-01 19:33N 40°40' W 074°00'0 0.0
2015-May-01 18:33N 40°40' W 074°00'0 0.0
2015-May-01 17:33N 40°40' W 074°00'0 0.0
2015-May-01 16:33N 40°40' W 074°00'1 1.2
2015-May-01 15:33N 40°39' W 074°01'2 1.8
2015-May-01 14:32N 40°39' W 074°04'4 3.8
2015-May-01 13:33N 40°40' W 074°08'1 1.4
2015-May-01 12:33N 40°41' W 074°09'0 0.0
2015-May-01 11:33N 40°41' W 074°09'0 0.0
2015-May-01 10:33N 40°41' W 074°09'0 0.0
2015-May-01 09:33N 40°41' W 074°09'0 0.0
2015-May-01 08:28N 40°41' W 074°09'0 0.0
2015-May-01 07:33N 40°41' W 074°09'0 0.0
2015-May-01 06:33N 40°41' W 074°09'0 0.0
2015-May-01 05:33N 40°41' W 074°09'0 0.0
2015-May-01 04:33N 40°41' W 074°09'0 0.0
2015-May-01 03:32N 40°41' W 074°09'0 0.0
2015-May-01 02:33N 40°41' W 074°09'0 0.0
2015-May-01 01:33N 40°41' W 074°09'0 0.0
2015-May-01 00:33N 40°41' W 074°09'3 2.8
2015-Apr-30 23:33N 40°39' W 074°08'1 0.7
2015-Apr-30 22:33N 40°38' W 074°07'0 0.0
2015-Apr-30 21:32N 40°38' W 074°07'0 0.0
2015-Apr-30 20:33N 40°38' W 074°07'0 0.0
2015-Apr-30 19:33N 40°38' W 074°07'0 0.0
2015-Apr-30 18:33N 40°38' W 074°07'2 1.8
2015-Apr-30 17:33N 40°39' W 074°05'2 1.3
2015-Apr-30 16:09N 40°38' W 074°07'0 0.0
2015-Apr-30 15:33N 40°38' W 074°07'0 0.0
2015-Apr-30 13:28N 40°38' W 074°07'0 0.0
2015-Apr-30 12:10N 40°39' W 074°07'0 0.0
2015-Apr-30 11:16N 40°39' W 074°07'3 2.0
2015-Apr-30 09:33N 40°40' W 074°03'4 4.5
2015-Apr-30 08:33N 40°44' W 074°01'8 7.5
2015-Apr-30 07:33N 40°51' W 073°57'8 0.3
2015-Apr-29 01:29N 40°58' W 073°54'5 6.0
2015-Apr-29 00:33N 40°53' W 073°56'7 6.9
2015-Apr-28 23:33N 40°47' W 073°60'6 6.2
2015-Apr-28 22:33N 40°41' W 074°02'6 5.6
2015-Apr-28 21:32N 40°39' W 074°09'5 4.5
2015-Apr-28 20:26N 40°34' W 074°13'2 2.5
2015-Apr-28 19:33N 40°33' W 074°15'0 0.0
2015-Apr-28 18:29N 40°33' W 074°15'0 0.0
2015-Apr-28 16:23N 40°33' W 074°15'2 0.2
2015-Apr-28 06:33N 40°34' W 074°13'7 6.9
2015-Apr-28 05:33N 40°39' W 074°07'2 1.9
2015-Apr-28 04:31N 40°39' W 074°09'3 2.7
2015-Apr-28 03:33N 40°41' W 074°09'0 0.0
2015-Apr-28 02:34N 40°41' W 074°09'0 0.0
2015-Apr-28 01:33N 40°41' W 074°09'0 0.0
2015-Apr-28 00:33N 40°41' W 074°09'0 0.0
2015-Apr-27 23:33N 40°41' W 074°09'0 0.0
2015-Apr-27 22:33N 40°41' W 074°09'0 0.0
2015-Apr-27 21:33N 40°41' W 074°09'1 1.4
2015-Apr-27 20:33N 40°40' W 074°09'6 6.1
2015-Apr-27 19:31N 40°35' W 074°13'2 2.0
2015-Apr-27 18:25N 40°33' W 074°15'5 5.5
2015-Apr-27 17:32N 40°38' W 074°12'6 6.5
2015-Apr-27 16:33N 40°40' W 074°04'1 1.2
2015-Apr-27 15:33N 40°40' W 074°03'4 3.7
2015-Apr-27 14:33N 40°39' W 074°07'0 0.0
2015-Apr-27 13:32N 40°39' W 074°07'0 0.0
2015-Apr-27 12:30N 40°39' W 074°07'3 2.7
2015-Apr-27 11:33N 40°40' W 074°05'1 1.5
2015-Apr-27 10:33N 40°39' W 074°03'2 2.1
2015-Apr-27 09:33N 40°40' W 074°00'0 0.0
2015-Apr-27 08:33N 40°40' W 074°00'0 0.0
2015-Apr-27 07:34N 40°40' W 074°00'0 0.0
2015-Apr-27 06:34N 40°40' W 074°00'0 0.0
2015-Apr-27 05:33N 40°40' W 074°00'0 0.0
2015-Apr-27 04:33N 40°40' W 074°00'2 1.7
2015-Apr-27 03:33N 40°40' W 074°03'5 5.0
2015-Apr-27 02:33N 40°38' W 074°09'2 1.9
2015-Apr-27 01:33N 40°39' W 074°11'0 0.0
2015-Apr-27 00:33N 40°39' W 074°11'0 0.0
2015-Apr-26 23:33N 40°39' W 074°11'0 0.0
2015-Apr-26 22:33N 40°39' W 074°11'4 4.0
2015-Apr-26 21:33N 40°39' W 074°06'2 1.6
2015-Apr-26 20:33N 40°39' W 074°04'2 2.4
2015-Apr-26 19:34N 40°40' W 074°01'4 3.9
2015-Apr-26 18:33N 40°39' W 074°06'1 0.9
2015-Apr-26 17:30N 40°39' W 074°07'0 0.0
2015-Apr-26 16:33N 40°39' W 074°07'0 0.0
2015-Apr-26 15:31N 40°39' W 074°07'0 0.0
2015-Apr-26 14:33N 40°39' W 074°07'0 0.0
2015-Apr-26 13:24N 40°39' W 074°07'0 0.0
2015-Apr-26 12:31N 40°39' W 074°07'3 2.8
2015-Apr-26 11:33N 40°40' W 074°04'1 1.2
2015-Apr-26 10:33N 40°39' W 074°05'4 3.9
2015-Apr-26 09:34N 40°40' W 074°00'0 0.1
2015-Apr-26 08:33N 40°40' W 074°01'4 4.0
2015-Apr-26 07:33N 40°39' W 074°06'2 2.1
2015-Apr-26 06:33N 40°38' W 074°03'0 0.1
2015-Apr-26 05:34N 40°38' W 074°03'0 0.1
2015-Apr-26 04:33N 40°38' W 074°03'0 0.2
2015-Apr-26 03:33N 40°38' W 074°03'2 1.6
2015-Apr-26 02:33N 40°39' W 074°04'2 2.4
2015-Apr-26 01:33N 40°38' W 074°07'0 0.0
2015-Apr-26 00:33N 40°38' W 074°07'0 0.0
2015-Apr-25 23:32N 40°38' W 074°07'0 0.3
2015-Apr-25 22:33N 40°39' W 074°07'0 0.3
2015-Apr-25 21:27N 40°38' W 074°07'3 1.4
2015-Apr-25 19:33N 40°39' W 074°04'3 3.0
2015-Apr-25 18:33N 40°40' W 074°00'8 8.3
2015-Apr-25 17:33N 40°39' W 074°11'  

Dump ship's entire track history